Time;durP1;ratioP1;P1;durP2;ratioP2;P2;SDS_P1;SDS_P2;PMS_P1;PMS_P2;Temp;Humidity;BMP_temperature;BMP_pressure;BME280_temperature;BME280_humidity;BME280_pressure;Samples;Min_cycle;Max_cycle;Signal;HPM_P1;HPM_P2
2021/05/15 18:58:14;;;;;;;67.12;10.28;;;;;;;15.36;66.09;100376.21;1725495;81;21123;-42
2021/05/15 19:00:40;;;;;;;45.33;14.23;;;;;;;15.28;66.74;100375.64;1717008;81;21192;-42
2021/05/15 19:03:07;;;;;;;75.92;15.20;;;;;;;15.22;67.48;100383.27;1734914;81;21046;-42
2021/05/15 19:05:33;;;;;;;99.95;14.85;;;;;;;15.17;67.95;100389.96;1759665;80;21586;-41
2021/05/15 19:08:00;;;;;;;59.55;12.05;;;;;;;15.11;68.48;100382.83;1762774;80;21562;-42
2021/05/15 19:10:28;;;;;;;102.12;9.88;;;;;;;15.05;68.68;100391.28;1764473;80;21214;-42
2021/05/15 19:12:56;;;;;;;72.08;9.75;;;;;;;14.99;68.70;100391.52;1747744;80;21039;-42
2021/05/15 19:15:22;;;;;;;83.12;11.85;;;;;;;14.94;68.54;100396.90;1766350;80;21009;-42
2021/05/15 19:17:50;;;;;;;77.03;11.53;;;;;;;14.90;67.93;100392.71;1751521;80;22368;-41
2021/05/15 19:20:17;;;;;;;96.78;10.32;;;;;;;14.87;67.61;100388.92;1754123;80;21590;-42
2021/05/15 19:22:46;;;;;;;57.23;8.03;;;;;;;14.85;67.68;100394.65;1744388;80;21655;-41
2021/05/15 19:25:13;;;;;;;57.05;9.00;;;;;;;14.82;67.72;100392.16;1760321;80;21081;-42
2021/05/15 19:27:40;;;;;;;61.48;8.28;;;;;;;14.80;67.58;100388.77;1748399;80;21001;-42
2021/05/15 19:30:09;;;;;;;37.13;6.17;;;;;;;14.77;67.39;100387.11;1757107;80;21566;-41
2021/05/15 19:32:36;;;;;;;43.25;4.58;;;;;;;14.77;67.04;100388.85;1744162;80;20994;-41
2021/05/15 19:35:03;;;;;;;40.33;5.28;;;;;;;14.78;66.25;100390.11;1762838;80;20962;-41
2021/05/15 19:37:30;;;;;;;32.80;4.35;;;;;;;14.85;65.77;100389.87;1761883;80;21602;-42
2021/05/15 19:40:00;;;;;;;29.20;4.03;;;;;;;14.94;65.21;100390.85;1726327;81;20946;-41
2021/05/15 19:42:24;;;;;;;26.00;3.77;;;;;;;15.00;64.73;100389.75;1730012;80;20958;-42
2021/05/15 19:44:52;;;;;;;18.80;3.70;;;;;;;15.06;64.16;100388.23;1742925;81;21017;-41
2021/05/15 19:47:19;;;;;;;23.20;2.98;;;;;;;15.14;63.70;100382.27;1754120;81;21096;-42
2021/05/15 19:49:46;;;;;;;12.13;2.87;;;;;;;15.20;63.34;100381.19;1746336;80;21082;-42
2021/05/15 19:52:15;;;;;;;18.92;2.50;;;;;;;15.23;62.91;100381.89;1733304;80;21025;-42
2021/05/15 19:54:46;;;;;;;17.77;2.30;;;;;;;15.33;62.34;100380.25;1743184;81;20950;-41
2021/05/15 19:57:18;;;;;;;14.03;2.62;;;;;;;15.38;61.86;100378.30;1728073;82;20989;-38
2021/05/15 19:59:44;;;;;;;17.60;2.47;;;;;;;15.40;61.58;100375.17;1743454;80;21045;-39
2021/05/15 20:02:11;;;;;;;18.77;2.35;;;;;;;15.41;61.30;100378.61;1725120;81;21788;-39
2021/05/15 20:04:37;;;;;;;10.48;1.60;;;;;;;15.42;61.17;100377.73;1743073;80;21558;-41
2021/05/15 20:07:07;;;;;;;8.40;1.82;;;;;;;15.43;61.03;100378.96;1752971;80;21618;-41
2021/05/15 20:09:33;;;;;;;13.40;1.40;;;;;;;15.42;60.87;100376.43;1760002;80;21033;-41
2021/05/15 20:12:00;;;;;;;6.55;1.40;;;;;;;15.41;60.70;100379.48;1760019;80;21608;-41
2021/05/15 20:14:27;;;;;;;10.48;1.60;;;;;;;15.40;60.71;100380.39;1751668;81;21071;-41
2021/05/15 20:16:55;;;;;;;12.10;1.50;;;;;;;15.38;60.64;100380.91;1753456;81;20962;-41
2021/05/15 20:19:24;;;;;;;20.10;2.12;;;;;;;15.37;60.60;100380.52;1751485;80;20980;-41
2021/05/15 20:21:50;;;;;;;21.45;2.30;;;;;;;15.36;61.38;100385.34;1755388;81;21122;-41
2021/05/15 20:24:17;;;;;;;16.93;2.33;;;;;;;15.32;64.64;100381.16;1748745;81;21021;-41
2021/05/15 20:26:44;;;;;;;26.07;2.37;;;;;;;15.21;65.68;100378.50;1754661;81;21816;-41
2021/05/15 20:29:11;;;;;;;30.12;2.83;;;;;;;15.09;65.83;100385.03;1744148;81;21716;-41
2021/05/15 20:31:37;;;;;;;13.32;2.30;;;;;;;15.02;66.34;100386.63;1757143;80;21598;-41
2021/05/15 20:34:04;;;;;;;34.33;4.12;;;;;;;14.91;66.74;100386.59;1750521;80;20930;-41
2021/05/15 20:36:30;;;;;;;21.17;3.35;;;;;;;14.80;67.63;100386.99;1736875;82;21003;-42
2021/05/15 20:38:57;;;;;;;28.05;3.17;;;;;;;14.70;67.96;100390.83;1727632;82;21848;-46
2021/05/15 20:41:23;;;;;;;20.50;2.75;;;;;;;14.61;68.46;100392.44;1734650;82;22373;-39
2021/05/15 20:43:50;;;;;;;51.20;3.30;;;;;;;14.54;69.08;100392.28;1739933;82;21608;-41
2021/05/15 20:46:19;;;;;;;34.63;2.70;;;;;;;14.43;69.51;100388.31;1741816;81;21111;-41
2021/05/15 20:48:53;;;;;;;86.47;4.58;;;;;;;14.36;70.14;100386.81;1742968;81;20986;-42
2021/05/15 20:51:19;;;;;;;42.53;3.25;;;;;;;14.29;70.76;100387.94;1739942;82;21074;-41
2021/05/15 20:53:46;;;;;;;47.73;4.62;;;;;;;14.21;71.28;100385.59;1740178;81;20926;-42
2021/05/15 20:56:13;;;;;;;48.75;3.45;;;;;;;14.16;71.94;100388.81;1741998;81;20977;-41
2021/05/15 20:58:40;;;;;;;38.98;4.00;;;;;;;14.08;72.70;100391.24;1741219;81;21009;-41
2021/05/15 21:01:06;;;;;;;30.92;2.40;;;;;;;14.02;73.42;100388.86;1739215;82;20938;-42
2021/05/15 21:03:35;;;;;;;23.98;2.52;;;;;;;13.99;74.43;100395.44;1742164;81;20919;-41
2021/05/15 21:06:01;;;;;;;21.20;2.42;;;;;;;13.98;74.98;100403.31;1744061;81;20957;-40
2021/05/15 21:08:28;;;;;;;10.48;1.17;;;;;;;13.92;75.90;100414.77;1742062;82;21031;-40
2021/05/15 21:10:56;;;;;;;4.85;1.20;;;;;;;13.86;73.98;100411.07;1741777;81;20863;-40
2021/05/15 21:13:23;;;;;;;11.93;1.40;;;;;;;13.99;71.95;100398.50;1741342;81;21085;-40
2021/05/15 21:15:50;;;;;;;4.60;0.98;;;;;;;14.08;70.12;100405.55;1740572;82;21707;-40
2021/05/15 21:18:18;;;;;;;5.58;1.30;;;;;;;14.25;69.97;100408.02;1743095;81;20933;-40
2021/05/15 21:20:45;;;;;;;10.10;1.45;;;;;;;14.30;68.76;100406.13;1740351;82;20902;-40
2021/05/15 21:23:11;;;;;;;20.48;4.00;;;;;;;14.38;68.23;100411.03;1744500;81;21072;-40
2021/05/15 21:25:39;;;;;;;11.10;2.95;;;;;;;14.43;67.97;100406.55;1749480;80;20978;-40
2021/05/15 21:28:06;;;;;;;19.75;6.35;;;;;;;14.41;67.47;100405.75;1761014;80;22368;-40
2021/05/15 21:30:37;;;;;;;62.13;30.57;;;;;;;14.48;66.40;100407.66;1738851;80;20966;-40
2021/05/15 21:33:02;;;;;;;86.95;36.90;;;;;;;14.60;66.24;100409.84;1758104;80;21600;-40
2021/05/15 21:35:29;;;;;;;68.05;20.43;;;;;;;14.63;66.10;100405.83;1748818;80;21136;-41
2021/05/15 21:37:55;;;;;;;66.75;25.10;;;;;;;14.63;65.98;100401.91;1739809;80;20970;-41
2021/05/15 21:40:22;;;;;;;49.75;9.53;;;;;;;14.66;65.71;100397.06;1750968;80;21066;-40
2021/05/15 21:42:49;;;;;;;59.63;17.42;;;;;;;14.65;65.60;100404.45;1752379;80;20880;-40
2021/05/15 21:45:16;;;;;;;37.67;8.88;;;;;;;14.64;65.44;100405.35;1753712;80;21008;-41
2021/05/15 21:47:44;;;;;;;47.35;5.15;;;;;;;14.61;65.46;100410.23;1746784;81;20993;-40
2021/05/15 21:50:12;;;;;;;52.62;4.65;;;;;;;14.61;68.11;100411.54;1761119;80;20957;-40
2021/05/15 21:52:39;;;;;;;57.30;4.60;;;;;;;14.54;69.03;100411.38;1756287;80;21092;-40
2021/05/15 21:55:08;;;;;;;68.42;4.20;;;;;;;14.45;69.16;100409.94;1750655;80;20963;-40
2021/05/15 21:57:35;;;;;;;30.50;4.40;;;;;;;14.36;69.77;100412.84;1766116;80;21138;-41
2021/05/15 22:00:17;;;;;;;36.00;7.33;;;;;;;14.25;69.32;100409.78;1735251;80;21037;-40
2021/05/15 22:02:43;;;;;;;75.50;4.83;;;;;;;14.18;69.37;100407.83;1700792;80;21028;-40
2021/05/15 22:05:10;;;;;;;136.35;7.08;;;;;;;14.12;69.22;100414.55;1766011;80;21046;-40
2021/05/15 22:07:36;;;;;;;190.68;9.18;;;;;;;14.07;69.11;100411.66;1760896;80;21126;-40
2021/05/15 22:10:06;;;;;;;141.73;7.30;;;;;;;14.02;69.37;100412.71;1758859;80;21009;-40
2021/05/15 22:12:33;;;;;;;120.53;7.35;;;;;;;13.92;69.62;100414.33;1750120;80;20994;-40
2021/05/15 22:14:59;;;;;;;127.07;8.60;;;;;;;13.87;69.80;100414.91;1764672;80;20931;-42
2021/05/15 22:17:26;;;;;;;122.78;7.67;;;;;;;13.83;69.76;100415.08;1767662;80;21058;-41
2021/05/15 22:19:52;;;;;;;89.25;5.22;;;;;;;13.76;69.95;100413.95;1759825;80;20918;-40
2021/05/15 22:22:19;;;;;;;103.00;7.10;;;;;;;13.69;70.04;100417.66;1767327;80;21041;-40
2021/05/15 22:24:45;;;;;;;67.15;4.42;;;;;;;13.64;70.14;100404.83;1757091;80;20978;-41
2021/05/15 22:27:12;;;;;;;62.10;4.55;;;;;;;13.61;70.01;100406.20;1769345;80;21072;-40
2021/05/15 22:29:39;;;;;;;39.65;4.03;;;;;;;13.60;70.21;100406.27;1766118;80;21174;-41
2021/05/15 22:32:06;;;;;;;57.62;3.72;;;;;;;13.56;70.19;100404.66;1749876;80;20906;-40
2021/05/15 22:34:32;;;;;;;41.60;4.72;;;;;;;13.52;69.97;100406.50;1775005;80;20899;-40
2021/05/15 22:36:59;;;;;;;44.75;4.10;;;;;;;13.48;69.99;100413.53;1760162;80;21001;-40
2021/05/15 22:39:25;;;;;;;51.53;4.60;;;;;;;13.44;70.11;100411.94;1759812;80;20960;-41
2021/05/15 22:41:52;;;;;;;71.00;5.65;;;;;;;13.44;70.21;100406.73;1760366;80;21063;-40
2021/05/15 22:44:18;;;;;;;60.60;3.50;;;;;;;13.47;70.73;100405.33;1765097;80;20997;-41
2021/05/15 22:46:45;;;;;;;78.78;5.67;;;;;;;13.49;70.75;100407.44;1757259;80;21018;-40
2021/05/15 22:49:11;;;;;;;61.98;4.45;;;;;;;13.49;70.60;100403.53;1748266;80;21014;-41
2021/05/15 22:51:39;;;;;;;40.80;3.60;;;;;;;13.45;70.63;100402.40;1754632;80;20977;-41
2021/05/15 22:54:06;;;;;;;31.85;3.33;;;;;;;13.43;70.81;100412.00;1778998;80;21134;-41
2021/05/15 22:56:32;;;;;;;34.53;2.50;;;;;;;13.40;71.10;100416.80;1758746;80;20934;-41
2021/05/15 22:59:01;;;;;;;29.10;3.20;;;;;;;13.36;71.32;100413.90;1762822;80;20989;-41
2021/05/15 23:01:31;;;;;;;23.07;4.05;;;;;;;13.28;71.72;100414.13;1753697;80;21592;-40
2021/05/15 23:03:57;;;;;;;17.32;4.35;;;;;;;13.19;72.36;100411.35;1763175;80;20993;-40
2021/05/15 23:06:24;;;;;;;32.95;4.62;;;;;;;13.06;73.02;100408.73;1754661;80;21044;-40
2021/05/15 23:08:50;;;;;;;34.63;4.47;;;;;;;12.89;73.63;100412.66;1757666;80;20970;-39
2021/05/15 23:11:18;;;;;;;25.62;4.10;;;;;;;12.71;74.48;100411.88;1766260;80;20994;-39
2021/05/15 23:13:44;;;;;;;29.60;3.47;;;;;;;12.53;75.09;100411.52;1763784;80;20962;-40
2021/05/15 23:16:12;;;;;;;16.55;3.10;;;;;;;12.40;76.26;100409.69;1768079;80;20974;-40
2021/05/15 23:18:38;;;;;;;23.25;3.10;;;;;;;12.26;77.05;100406.59;1767742;80;21063;-40
2021/05/15 23:21:05;;;;;;;51.33;4.28;;;;;;;12.14;77.71;100407.77;1767897;80;20965;-40
2021/05/15 23:23:32;;;;;;;36.98;4.45;;;;;;;12.05;78.30;100406.25;1750509;80;20970;-40
2021/05/15 23:25:58;;;;;;;20.80;3.72;;;;;;;11.98;78.81;100405.98;1780220;80;20879;-40
2021/05/15 23:28:24;;;;;;;40.80;4.33;;;;;;;11.90;79.11;100406.16;1758467;80;21132;-41
2021/05/15 23:30:51;;;;;;;65.00;5.87;;;;;;;11.84;79.42;100411.05;1752463;80;21072;-40
2021/05/15 23:33:18;;;;;;;50.03;4.67;;;;;;;11.78;79.60;100403.00;1765002;80;20982;-41
2021/05/15 23:35:44;;;;;;;44.45;3.25;;;;;;;11.73;79.82;100402.23;1743973;80;21526;-41
2021/05/15 23:38:11;;;;;;;48.25;4.28;;;;;;;11.69;80.18;100398.02;1752217;80;21551;-41
2021/05/15 23:40:38;;;;;;;55.92;4.75;;;;;;;11.65;80.34;100404.16;1768269;80;20886;-40
2021/05/15 23:43:04;;;;;;;112.55;7.60;;;;;;;11.60;80.42;100409.45;1763367;80;21584;-41
2021/05/15 23:45:37;;;;;;;60.83;5.25;;;;;;;11.55;80.57;100405.28;1769413;80;21614;-40
2021/05/15 23:48:05;;;;;;;42.03;4.97;;;;;;;11.50;80.62;100410.56;1752587;80;20922;-41
2021/05/15 23:50:32;;;;;;;36.63;3.72;;;;;;;11.43;80.99;100403.83;1753337;80;21036;-41
2021/05/15 23:52:59;;;;;;;39.40;3.92;;;;;;;11.39;81.25;100409.97;1763074;80;20963;-40
2021/05/15 23:55:25;;;;;;;40.92;3.70;;;;;;;11.36;81.57;100408.28;1764712;80;21095;-40
2021/05/15 23:57:52;;;;;;;26.40;2.83;;;;;;;11.33;81.79;100407.06;1754507;81;21014;-40
